Aeroporto :
LOGIN :

Iscrizione | Disclaimer

   EN    FR    IT 

 










Sommario :    VFR   VFR Marginale   IFR   IFR Intensivo   IFR Molto Intensivo
Visibilità : 
Base nubi : 
>= 8 km
>= 3000ft
5 / 8 km
1000 / 3000 ft
1500m / 5 km
500 / 1000 ft
800 / 1500m
200 / 500 ft
< 800m
< 200 ft
Simboli :   Temporali  Nebbia  Neve Forte  Precipitazioni Forti  Vento > 20 kt
SIGMETs :   Varie  Temporali  Ghiacco  Turbolenza  Onda orograficha  Ceneri Vulcaniche






- Altitudine del aeroporto : 1910 ft
- Codice IATA : RDZ


LFCR - Rodez

ULTIMO METAR :
  • 141930Z AUTO 23002KT 9999 SCT020 BKN200 02/01 Q0996 BECMG OVC004

METARs OBSOLETI :
  • 141900Z AUTO 23006KT 9999 OVC019 03/02 Q0997 BECMG OVC004
  • 141830Z AUTO 22004KT 9999 BKN016 BKN160 OVC210 03/02 Q0997 BECMG OVC004
  • 141800Z AUTO 25003KT 9999 OVC014 03/02 Q0997 BECMG BKN006 BKN012
  • 141730Z AUTO 24003KT 9999 FEW006 BKN013 OVC018 03/03 Q0997 BECMG BKN006 BKN012
  • 141700Z AUTO VRB02KT 9999 BKN007 OVC012 03/03 Q0997 TEMPO SCT045TCU

TAF TAF LFCR
Valido dal 14 a 18 ore il 15 a 18 ore UTC


141700Z 1418/1518 VRB03KT 9999 BKN006 BKN012
BECMG 1420/1422 OVC004
TEMPO 1500/1507 4000 BR
PROB30
TEMPO 1500/1506 0500 FG VV///
BECMG 1507/1508 BKN010
BECMG 1509/1511 SCT030
TEMPO 1514/1516 SCT050TCU



MetMap, La meteo Aeronautica in un colpo d'occhio ! - Copyright ORBIFLY Dicembre 2007 - Disclaimer

ORBIFLY MET'MAP TEAM :

Programmazione e sviluppo : Alexandra Zaïnal
Concezione e sviluppo : Baudouin d'Aumeries
Co-Programmazione e sviluppo : Marc-Olivier Méhu
Supporto tecnico e logistico : Manuel Goepfert
Aiuto per la traduzione : Arnaldo La Scala

Contatto : metmap@orbifly.com




FONTI E CREDITI :

   NOAA